Time;durP1;ratioP1;P1;durP2;ratioP2;P2;SDS_P1;SDS_P2;PMS_P1;PMS_P2;Temp;Humidity;BMP_temperature;BMP_pressure;BME280_temperature;BME280_humidity;BME280_pressure;Samples;Min_cycle;Max_cycle;Signal;HPM_P1;HPM_P2
2023/06/23 00:00:46;;;;;;;9.70;5.20;;;;;;;18.14;77.59;101771.16;7386971;19;20804;-69
2023/06/23 00:03:15;;;;;;;9.32;4.93;;;;;;;18.11;77.75;101779.75;7389476;19;20279;-69
2023/06/23 00:05:44;;;;;;;6.38;4.95;;;;;;;18.09;77.96;101780.97;7385294;19;20337;-70
2023/06/23 00:08:13;;;;;;;9.90;4.82;;;;;;;18.08;77.70;101780.13;7390889;19;19982;-69
2023/06/23 00:10:43;;;;;;;8.45;4.85;;;;;;;18.06;78.35;101784.97;7386548;19;19941;-70
2023/06/23 00:13:12;;;;;;;11.18;5.03;;;;;;;18.05;78.46;101788.72;7386061;19;19958;-69
2023/06/23 00:15:43;;;;;;;11.63;5.00;;;;;;;18.04;77.85;101797.09;7387172;19;19935;-70
2023/06/23 00:18:12;;;;;;;7.53;5.03;;;;;;;18.03;77.92;101788.09;7388346;19;20273;-71
2023/06/23 00:20:41;;;;;;;10.25;4.40;;;;;;;18.02;78.40;101808.25;7385732;19;19925;-70
2023/06/23 00:23:12;;;;;;;6.47;4.28;;;;;;;18.04;77.73;101797.09;7387681;19;20040;-69
2023/06/23 00:25:40;;;;;;;7.57;3.78;;;;;;;18.03;77.53;101809.09;7384971;19;19982;-70
2023/06/23 00:28:09;;;;;;;8.93;4.10;;;;;;;18.01;77.68;101798.38;7384517;19;19937;-70
2023/06/23 00:30:38;;;;;;;11.30;3.95;;;;;;;17.99;77.74;101803.16;7382937;19;19990;-69
2023/06/23 00:33:09;;;;;;;7.43;4.32;;;;;;;17.93;78.24;101804.00;7384604;19;19934;-69
2023/06/23 00:35:38;;;;;;;8.82;4.25;;;;;;;17.90;78.52;101798.97;7386960;19;20029;-69
2023/06/23 00:38:07;;;;;;;6.18;4.18;;;;;;;17.87;78.72;101802.06;7386775;19;19918;-70
2023/06/23 00:40:36;;;;;;;8.90;4.22;;;;;;;17.85;78.66;101804.16;7382285;19;19918;-69
2023/06/23 00:43:05;;;;;;;9.05;3.58;;;;;;;17.84;78.84;101797.03;7385001;19;19937;-70
2023/06/23 00:45:34;;;;;;;6.38;3.58;;;;;;;17.84;78.37;101802.47;7384092;19;19929;-69
2023/06/23 00:48:04;;;;;;;7.60;3.70;;;;;;;17.86;78.45;101805.81;7386379;19;20262;-70
2023/06/23 00:50:37;;;;;;;6.20;3.28;;;;;;;17.88;77.72;101814.66;7389086;19;19922;-70
2023/06/23 00:53:06;;;;;;;6.10;3.28;;;;;;;17.92;77.55;101813.22;7385249;19;19929;-70
2023/06/23 00:55:38;;;;;;;6.88;3.25;;;;;;;17.92;77.97;101810.50;7381470;19;19922;-70
2023/06/23 00:58:08;;;;;;;6.72;3.28;;;;;;;17.91;77.58;101808.78;7384738;19;19922;-69
2023/06/23 01:00:37;;;;;;;6.95;3.38;;;;;;;17.91;77.52;101803.34;7382556;19;19938;-70
2023/06/23 01:03:06;;;;;;;5.18;3.10;;;;;;;17.91;77.45;101808.78;7384429;19;19918;-70
2023/06/23 01:05:39;;;;;;;7.03;3.13;;;;;;;17.92;77.92;101815.09;7383744;19;19953;-70
2023/06/23 01:08:25;;;;;;;7.63;3.80;;;;;;;17.87;78.13;101814.84;7383644;19;19929;-70
2023/06/23 01:10:59;;;;;;;8.80;4.30;;;;;;;17.86;78.17;101805.81;7386088;19;19922;-69
2023/06/23 01:13:37;;;;;;;5.10;3.30;;;;;;;17.82;77.75;101804.56;7384741;19;19933;-69
2023/06/23 01:16:12;;;;;;;5.75;3.90;;;;;;;17.80;78.88;101808.53;7383127;19;19915;-69
2023/06/23 01:18:50;;;;;;;7.13;3.75;;;;;;;17.74;78.50;101801.16;7386353;19;19922;-69
2023/06/23 01:21:35;;;;;;;7.15;2.92;;;;;;;17.68;79.24;101805.53;7383660;19;19918;-70
2023/06/23 01:24:13;;;;;;;8.30;3.75;;;;;;;17.75;78.65;101805.56;7387472;19;19985;-70
2023/06/23 01:26:58;;;;;;;7.38;3.45;;;;;;;17.76;78.82;101816.28;7382876;19;19929;-69
2023/06/23 01:29:34;;;;;;;9.88;3.45;;;;;;;17.77;78.44;101817.97;7386206;19;19919;-71
2023/06/23 01:32:08;;;;;;;8.85;3.95;;;;;;;17.78;77.73;101818.78;7385023;19;19947;-71
2023/06/23 01:34:42;;;;;;;9.40;4.07;;;;;;;17.76;78.63;101823.59;7386201;19;19930;-71
2023/06/23 01:37:14;;;;;;;7.70;4.38;;;;;;;17.68;78.20;101827.34;7386972;19;19918;-71
2023/06/23 01:39:51;;;;;;;13.50;4.75;;;;;;;17.65;77.85;101825.00;7389377;19;19927;-70
2023/06/23 01:42:22;;;;;;;7.53;3.85;;;;;;;17.65;78.00;101833.19;7385977;19;19941;-71
2023/06/23 01:44:57;;;;;;;7.45;3.95;;;;;;;17.64;77.96;101828.78;7385535;19;19922;-71
2023/06/23 01:47:30;;;;;;;6.55;3.63;;;;;;;17.66;77.94;101829.41;7385046;19;19942;-71
2023/06/23 01:50:03;;;;;;;7.55;3.72;;;;;;;17.62;78.86;101826.25;7386483;19;20622;-71
2023/06/23 01:52:35;;;;;;;7.90;3.72;;;;;;;17.61;78.04;101831.91;7384220;19;19918;-72
2023/06/23 01:55:05;;;;;;;6.55;3.40;;;;;;;17.63;78.28;101840.72;7382779;19;20345;-69
2023/06/23 01:57:36;;;;;;;8.32;4.10;;;;;;;17.66;77.83;101853.94;7385504;19;19931;-68
2023/06/23 02:00:13;;;;;;;7.25;3.53;;;;;;;17.63;77.58;101844.28;7382484;19;20378;-69
2023/06/23 02:02:42;;;;;;;;;;;;;;;17.46;79.44;101852.94;7384676;19;19922;-69
2023/06/23 02:05:12;;;;;;;7.97;3.28;;;;;;;17.63;77.88;101854.34;7384734;19;19926;-69
2023/06/23 02:07:43;;;;;;;7.75;3.45;;;;;;;17.65;78.18;101860.44;7381045;19;19945;-69
2023/06/23 02:10:13;;;;;;;9.32;3.50;;;;;;;17.67;78.07;101861.09;7382859;19;19918;-70
2023/06/23 02:12:46;;;;;;;8.60;3.28;;;;;;;17.68;77.80;101860.91;7385520;19;19918;-69
2023/06/23 02:15:19;;;;;;;7.00;3.95;;;;;;;17.66;77.86;101871.13;7383815;19;19919;-69
2023/06/23 02:17:50;;;;;;;5.15;3.40;;;;;;;17.67;77.55;101877.44;7383140;19;19930;-69
2023/06/23 02:20:23;;;;;;;7.65;3.58;;;;;;;17.68;78.29;101882.69;7380279;19;19922;-70
2023/06/23 02:22:54;;;;;;;9.07;3.90;;;;;;;17.71;78.02;101886.06;7384075;19;19918;-69
2023/06/23 02:25:25;;;;;;;11.45;4.25;;;;;;;17.71;78.23;101876.00;7383788;19;20260;-68
2023/06/23 02:27:55;;;;;;;9.95;3.75;;;;;;;17.72;78.00;101879.56;7383742;19;19925;-71
2023/06/23 02:30:26;;;;;;;5.70;3.22;;;;;;;17.69;77.76;101875.34;7387617;19;19964;-69
2023/06/23 02:32:56;;;;;;;5.28;3.20;;;;;;;17.67;78.18;101886.47;7384695;19;19918;-71
2023/06/23 02:35:25;;;;;;;9.68;3.60;;;;;;;17.66;78.20;101882.03;7385502;19;19923;-70
2023/06/23 02:37:58;;;;;;;5.38;3.08;;;;;;;17.62;78.61;101885.38;7384798;19;20328;-69
2023/06/23 02:40:29;;;;;;;6.97;3.20;;;;;;;17.61;78.93;101884.50;7382324;19;19922;-70
2023/06/23 02:43:05;;;;;;;6.55;3.08;;;;;;;17.59;78.96;101885.78;7384840;19;19963;-70
2023/06/23 02:45:40;;;;;;;6.63;3.55;;;;;;;17.61;78.53;101895.41;7384439;19;20373;-69
2023/06/23 02:48:15;;;;;;;6.75;3.25;;;;;;;17.67;78.92;101893.78;7383135;19;19918;-69
2023/06/23 02:50:46;;;;;;;7.22;2.92;;;;;;;17.65;78.62;101898.59;7385447;19;20376;-69
2023/06/23 02:53:30;;;;;;;11.35;3.80;;;;;;;17.61;79.02;101900.88;7383550;19;19918;-70
2023/06/23 02:56:04;;;;;;;7.35;3.33;;;;;;;17.65;78.08;101901.31;7383708;19;19940;-70
2023/06/23 02:58:35;;;;;;;5.30;3.20;;;;;;;17.70;77.96;101907.00;7385626;19;20379;-71
2023/06/23 03:01:08;;;;;;;5.57;3.17;;;;;;;17.68;78.65;101906.38;7378735;19;19921;-70
2023/06/23 03:03:39;;;;;;;9.88;3.10;;;;;;;17.69;78.24;101899.88;7380859;19;20410;-70
2023/06/23 03:06:08;;;;;;;7.40;3.10;;;;;;;17.68;78.44;101909.09;7381716;19;19926;-69
2023/06/23 03:08:37;;;;;;;10.20;3.08;;;;;;;17.69;78.10;101918.94;7384330;19;20840;-69
2023/06/23 03:11:07;;;;;;;10.18;3.53;;;;;;;17.71;78.37;101922.34;7380457;19;20859;-69
2023/06/23 03:13:36;;;;;;;6.90;3.70;;;;;;;17.71;78.16;101925.06;7382724;19;20469;-69
2023/06/23 03:16:12;;;;;;;6.60;3.05;;;;;;;17.71;78.25;101918.75;7381881;19;19932;-69
2023/06/23 03:18:49;;;;;;;8.23;3.53;;;;;;;17.72;78.39;101929.47;7381200;19;19967;-69
2023/06/23 03:21:18;;;;;;;6.22;2.97;;;;;;;17.73;78.71;101935.78;7380504;19;19924;-69
2023/06/23 03:23:50;;;;;;;7.15;3.28;;;;;;;17.74;78.29;101934.69;7384258;19;19992;-69
2023/06/23 03:26:22;;;;;;;10.68;3.13;;;;;;;17.74;78.04;101934.69;7381492;19;19955;-69
2023/06/23 03:28:55;;;;;;;10.45;3.15;;;;;;;17.75;78.52;101942.69;7384135;19;20368;-69
2023/06/23 03:31:27;;;;;;;8.48;2.72;;;;;;;17.74;78.26;101938.28;7385571;19;19928;-69
2023/06/23 03:33:59;;;;;;;11.35;3.63;;;;;;;17.76;78.43;101940.81;7378954;19;20348;-71
2023/06/23 03:36:30;;;;;;;6.03;2.97;;;;;;;17.76;78.36;101946.25;7379961;19;19990;-68
2023/06/23 03:39:02;;;;;;;6.05;2.88;;;;;;;17.75;78.30;101956.31;7381551;19;20330;-69
2023/06/23 03:41:33;;;;;;;8.52;3.25;;;;;;;17.75;78.35;101953.59;7380137;19;19986;-69
2023/06/23 03:44:10;;;;;;;8.98;3.40;;;;;;;17.77;78.73;101959.72;7380494;19;20279;-70
2023/06/23 03:46:48;;;;;;;8.63;3.50;;;;;;;17.74;78.65;101960.09;7381122;19;19998;-70
2023/06/23 03:49:19;;;;;;;10.18;3.33;;;;;;;17.77;78.24;101967.88;7378496;19;19933;-69
2023/06/23 03:51:50;;;;;;;5.53;2.65;;;;;;;17.79;78.33;101973.13;7383983;19;20284;-70
2023/06/23 03:54:20;;;;;;;12.38;3.55;;;;;;;17.79;78.19;101976.69;7377595;19;19918;-69
2023/06/23 03:56:51;;;;;;;6.13;3.03;;;;;;;17.81;78.73;101990.13;7380643;19;20686;-69
2023/06/23 03:59:23;;;;;;;9.60;3.35;;;;;;;17.80;78.46;101991.16;7380891;19;19988;-69
2023/06/23 04:01:57;;;;;;;8.18;3.20;;;;;;;17.77;78.72;101991.56;7381398;19;19978;-69
2023/06/23 04:04:28;;;;;;;7.70;3.47;;;;;;;17.78;78.33;101994.06;7377722;19;19922;-70
2023/06/23 04:06:59;;;;;;;6.22;3.70;;;;;;;17.79;78.27;101986.75;7377122;19;19949;-69
2023/06/23 04:09:30;;;;;;;7.63;3.83;;;;;;;17.80;78.37;101993.91;7379349;19;19923;-69
2023/06/23 04:12:01;;;;;;;8.45;3.38;;;;;;;17.78;78.75;101985.06;7380510;19;19927;-69
2023/06/23 04:14:31;;;;;;;5.72;2.90;;;;;;;17.80;78.35;101996.63;7380297;19;20013;-69
2023/06/23 04:17:05;;;;;;;6.38;2.78;;;;;;;17.78;78.60;101990.50;7382077;19;19941;-69
2023/06/23 04:19:38;;;;;;;9.63;3.10;;;;;;;17.78;78.29;101994.06;7382510;19;19943;-70
2023/06/23 04:22:09;;;;;;;6.28;3.30;;;;;;;17.79;78.64;101989.47;7381255;19;20590;-69
2023/06/23 04:24:40;;;;;;;9.50;3.03;;;;;;;17.76;78.65;101988.00;7382820;19;19914;-70
2023/06/23 04:27:10;;;;;;;9.10;3.13;;;;;;;17.76;78.80;101996.19;7379236;19;19928;-70
2023/06/23 04:29:41;;;;;;;6.65;3.17;;;;;;;17.77;78.42;101992.41;7381671;19;19918;-70
2023/06/23 04:32:15;;;;;;;9.00;3.17;;;;;;;17.80;78.81;101992.00;7385969;19;19922;-71
2023/06/23 04:34:44;;;;;;;6.88;3.00;;;;;;;17.84;78.64;101998.75;7385430;19;19982;-70
2023/06/23 04:37:21;;;;;;;6.72;3.75;;;;;;;17.87;78.57;101998.34;7385693;19;19923;-69
2023/06/23 04:39:54;;;;;;;5.88;3.05;;;;;;;17.90;78.38;101992.53;7385045;19;19933;-69
2023/06/23 04:42:29;;;;;;;7.63;3.42;;;;;;;17.93;78.60;101989.41;7387737;19;19926;-70
2023/06/23 04:45:01;;;;;;;5.82;2.85;;;;;;;18.00;78.48;102003.06;7386904;19;19929;-69
2023/06/23 04:47:38;;;;;;;6.80;2.85;;;;;;;18.01;78.95;102007.47;7387092;19;19932;-69
2023/06/23 04:50:12;;;;;;;5.20;2.92;;;;;;;18.03;78.93;102011.69;7388033;19;20059;-68
2023/06/23 04:52:47;;;;;;;7.90;3.13;;;;;;;18.03;78.58;102008.16;7386424;19;19919;-69
2023/06/23 04:55:19;;;;;;;5.45;3.10;;;;;;;18.04;78.46;102005.19;7383749;19;19998;-69
2023/06/23 04:57:55;;;;;;;9.27;3.20;;;;;;;18.05;78.40;102006.03;7384075;19;19922;-69
2023/06/23 05:00:26;;;;;;;8.35;3.03;;;;;;;18.07;78.38;102014.88;7381924;19;20014;-69
2023/06/23 05:03:00;;;;;;;5.93;2.80;;;;;;;18.07;78.59;102018.47;7379787;19;20002;-69
2023/06/23 05:05:31;;;;;;;6.80;3.42;;;;;;;18.09;78.85;102026.41;7384794;19;21256;-69
2023/06/23 05:08:01;;;;;;;11.35;3.60;;;;;;;18.10;78.06;102026.22;7389369;19;19926;-69
2023/06/23 05:10:31;;;;;;;9.27;3.50;;;;;;;18.11;78.57;102035.25;7384590;19;19934;-69
2023/06/23 05:13:05;;;;;;;6.95;3.20;;;;;;;18.15;78.43;102042.00;7384973;19;20317;-69
2023/06/23 05:15:34;;;;;;;7.90;3.13;;;;;;;18.15;78.86;102036.56;7386980;19;19929;-69
2023/06/23 05:18:08;;;;;;;10.18;3.55;;;;;;;18.16;78.41;102038.25;7387842;19;22442;-69
2023/06/23 05:20:41;;;;;;;6.63;3.00;;;;;;;18.21;78.82;102035.72;7381681;19;19947;-69
2023/06/23 05:23:13;;;;;;;8.88;2.97;;;;;;;18.24;78.48;102043.53;7388773;19;19918;-69
2023/06/23 05:25:45;;;;;;;10.27;3.97;;;;;;;18.28;78.14;102054.91;7385196;19;19927;-69
2023/06/23 05:28:17;;;;;;;7.80;3.28;;;;;;;18.32;78.26;102048.00;7385122;19;19926;-70
2023/06/23 05:30:46;;;;;;;;;;;;;;;18.20;79.62;102052.31;7388213;19;19918;-70
2023/06/23 05:33:19;;;;;;;11.05;4.65;;;;;;;18.35;78.16;102058.50;7388195;19;19946;-70
2023/06/23 05:35:49;;;;;;;7.38;2.88;;;;;;;18.42;77.85;102056.69;7385183;19;19914;-70
2023/06/23 05:38:19;;;;;;;8.02;3.05;;;;;;;18.47;77.52;102065.09;7385317;19;20341;-70
2023/06/23 05:40:48;;;;;;;6.53;3.08;;;;;;;18.49;77.41;102058.41;7387224;19;19956;-71
2023/06/23 05:43:17;;;;;;;9.23;2.83;;;;;;;18.52;77.48;102068.94;7384309;19;19929;-71
2023/06/23 05:45:46;;;;;;;5.95;3.17;;;;;;;18.56;77.20;102072.13;7385640;19;19922;-71
2023/06/23 05:48:27;;;;;;;6.10;3.15;;;;;;;18.57;77.23;102073.81;7385631;19;19926;-71
2023/06/23 05:50:58;;;;;;;10.73;3.05;;;;;;;18.65;77.10;102070.91;7389472;19;19922;-71
2023/06/23 05:53:29;;;;;;;6.32;3.25;;;;;;;18.70;77.10;102065.69;7382211;19;19922;-70
2023/06/23 05:56:03;;;;;;;5.75;2.80;;;;;;;18.71;76.69;102074.72;7386873;19;19926;-70
2023/06/23 05:58:35;;;;;;;5.47;2.78;;;;;;;18.74;76.55;102083.34;7384094;19;19974;-70
2023/06/23 06:01:10;;;;;;;6.88;3.00;;;;;;;18.75;76.76;102079.59;7385739;19;19918;-70
2023/06/23 06:03:44;;;;;;;9.30;3.03;;;;;;;18.76;77.35;102089.47;7381788;19;20355;-71
2023/06/23 06:06:14;;;;;;;7.20;3.40;;;;;;;18.78;76.79;102086.53;7188789;19;131535;-70
2023/06/23 06:08:45;;;;;;;7.78;3.28;;;;;;;18.78;75.86;102089.25;7380855;19;19923;-70
2023/06/23 06:11:16;;;;;;;7.88;3.10;;;;;;;18.78;76.03;102089.25;7379126;19;19915;-70
2023/06/23 06:13:49;;;;;;;8.10;3.40;;;;;;;18.78;76.12;102090.09;7377489;19;19925;-74
2023/06/23 06:16:20;;;;;;;9.02;3.25;;;;;;;18.77;76.33;102088.41;7384778;19;19922;-70
2023/06/23 06:18:54;;;;;;;7.75;3.92;;;;;;;18.74;76.50;102094.28;7380184;19;20355;-70
2023/06/23 06:21:24;;;;;;;8.25;4.75;;;;;;;18.77;76.48;102099.31;7380064;19;19978;-70
2023/06/23 06:23:55;;;;;;;12.02;5.72;;;;;;;18.77;75.98;102101.25;7385711;19;20501;-70
2023/06/23 06:26:25;;;;;;;12.43;8.88;;;;;;;18.77;76.10;102109.44;7382365;19;19914;-70
2023/06/23 06:28:57;;;;;;;16.52;10.43;;;;;;;18.76;75.88;102107.75;7381627;19;19986;-71
2023/06/23 06:31:26;;;;;;;13.25;8.80;;;;;;;18.75;76.32;102108.78;7383274;19;19923;-69
2023/06/23 06:33:59;;;;;;;11.07;8.13;;;;;;;18.75;76.68;102111.50;7384568;19;19929;-69
2023/06/23 06:36:30;;;;;;;9.95;6.70;;;;;;;18.74;76.37;102113.38;7383575;19;19934;-70
2023/06/23 06:39:01;;;;;;;10.30;6.47;;;;;;;18.74;76.64;102115.28;7385741;19;19926;-69
2023/06/23 06:41:33;;;;;;;12.15;5.85;;;;;;;18.70;76.89;102120.28;7384486;19;20002;-70
2023/06/23 06:44:02;;;;;;;9.40;5.00;;;;;;;18.67;77.07;102123.44;7384708;19;19942;-69
2023/06/23 06:46:32;;;;;;;14.82;6.25;;;;;;;18.64;77.10;102118.34;7382465;19;19926;-69
2023/06/23 06:49:04;;;;;;;9.88;4.97;;;;;;;18.63;77.53;102127.59;7385599;19;19919;-69
2023/06/23 06:51:34;;;;;;;8.63;5.40;;;;;;;18.62;76.84;102130.53;7387674;19;19923;-69
2023/06/23 06:54:03;;;;;;;8.45;5.18;;;;;;;18.63;76.79;102135.78;7382137;19;19970;-69
2023/06/23 06:56:33;;;;;;;10.30;4.55;;;;;;;18.62;77.18;102142.28;7382814;19;19929;-70
2023/06/23 06:59:02;;;;;;;11.45;5.20;;;;;;;18.62;76.67;102138.72;7384941;19;19978;-70
2023/06/23 07:01:31;;;;;;;7.13;4.88;;;;;;;18.63;76.94;102149.44;7384480;19;19931;-69
2023/06/23 07:04:03;;;;;;;8.45;4.93;;;;;;;18.68;76.94;102154.31;7380946;19;20044;-69
2023/06/23 07:06:34;;;;;;;12.80;6.15;;;;;;;18.71;77.01;102149.28;7382267;19;19922;-70
2023/06/23 07:09:03;;;;;;;10.60;4.72;;;;;;;18.75;77.11;102150.56;7381425;19;19926;-69
2023/06/23 07:11:31;;;;;;;11.48;5.90;;;;;;;18.80;76.67;102159.03;7382012;19;20007;-69
2023/06/23 07:14:01;;;;;;;11.38;5.75;;;;;;;18.88;76.06;102158.84;7382605;19;19922;-68
2023/06/23 07:16:33;;;;;;;11.15;5.97;;;;;;;18.93;75.60;102164.56;7385376;19;19926;-68
2023/06/23 07:19:04;;;;;;;12.40;5.28;;;;;;;19.00;75.73;102170.06;7381713;19;19918;-69
2023/06/23 07:21:33;;;;;;;9.50;4.60;;;;;;;19.10;75.45;102169.69;7384771;19;19935;-70
2023/06/23 07:24:02;;;;;;;10.20;4.25;;;;;;;19.16;75.36;102163.41;7380254;19;20340;-69
2023/06/23 07:26:33;;;;;;;10.20;4.38;;;;;;;19.22;75.10;102174.38;7380906;19;20569;-70
2023/06/23 07:29:01;;;;;;;7.93;4.57;;;;;;;19.31;75.41;102170.44;7382354;19;19992;-70
2023/06/23 07:31:30;;;;;;;8.18;3.70;;;;;;;19.41;75.23;102172.81;7381859;19;19918;-70
2023/06/23 07:33:59;;;;;;;8.20;4.53;;;;;;;19.49;74.61;102175.41;7382012;19;19950;-70
2023/06/23 07:36:30;;;;;;;9.50;5.03;;;;;;;19.53;74.09;102182.13;7379800;19;19915;-71
2023/06/23 07:38:59;;;;;;;9.05;4.68;;;;;;;19.58;73.47;102178.78;7382345;19;19926;-71
2023/06/23 07:41:28;;;;;;;7.43;4.40;;;;;;;19.60;73.28;102185.72;7380478;19;19930;-70
2023/06/23 07:43:57;;;;;;;7.72;4.55;;;;;;;19.61;72.96;102181.97;7381453;19;19933;-70
2023/06/23 07:46:25;;;;;;;6.80;3.80;;;;;;;19.64;72.59;102184.28;7380852;19;19918;-70
2023/06/23 07:48:54;;;;;;;6.90;3.53;;;;;;;19.65;72.53;102185.97;7384269;19;19956;-70
2023/06/23 07:51:23;;;;;;;6.78;3.90;;;;;;;19.67;72.72;102183.88;7383905;19;19926;-71
2023/06/23 07:53:55;;;;;;;15.30;4.40;;;;;;;19.73;72.82;102185.78;7383584;19;20601;-71
2023/06/23 07:56:24;;;;;;;6.85;4.03;;;;;;;19.80;73.48;102188.56;7381247;19;20332;-71
2023/06/23 07:58:52;;;;;;;8.88;4.32;;;;;;;19.86;72.18;102182.25;7379889;19;19919;-71
2023/06/23 08:01:21;;;;;;;10.15;4.03;;;;;;;19.89;72.11;102190.88;7381026;19;19924;-70
2023/06/23 08:03:50;;;;;;;5.35;3.35;;;;;;;19.91;71.73;102198.88;7379287;19;20471;-71
2023/06/23 08:06:23;;;;;;;9.02;3.45;;;;;;;19.93;71.75;102191.31;7384927;19;19929;-72
2023/06/23 08:08:55;;;;;;;7.25;3.40;;;;;;;19.91;70.42;102196.16;7386787;19;19926;-70
2023/06/23 08:11:24;;;;;;;5.85;3.72;;;;;;;19.91;70.29;102197.00;7389869;19;19932;-70
2023/06/23 08:13:53;;;;;;;8.50;3.75;;;;;;;19.92;71.33;102204.16;7388271;19;20009;-71
2023/06/23 08:16:23;;;;;;;7.43;3.85;;;;;;;19.97;71.28;102213.63;7389058;19;19934;-70
2023/06/23 08:18:52;;;;;;;7.78;3.67;;;;;;;20.03;70.88;102207.31;7385722;19;19918;-70
2023/06/23 08:21:21;;;;;;;7.55;3.35;;;;;;;20.07;69.90;102217.66;7390378;19;20003;-70
2023/06/23 08:23:50;;;;;;;6.05;3.30;;;;;;;20.09;69.30;102209.25;7390205;19;19925;-70
2023/06/23 08:26:21;;;;;;;9.07;4.22;;;;;;;20.11;68.16;102215.34;7386258;19;19981;-70
2023/06/23 08:28:50;;;;;;;4.75;2.90;;;;;;;20.15;66.73;102205.69;7387633;19;19934;-70
2023/06/23 08:31:19;;;;;;;5.38;3.10;;;;;;;20.26;67.72;102225.06;7389022;19;19978;-70
2023/06/23 08:33:48;;;;;;;7.28;2.83;;;;;;;20.36;66.86;102222.78;7388418;19;20332;-70
2023/06/23 08:36:16;;;;;;;9.63;3.58;;;;;;;20.45;65.85;102226.16;7386095;19;19923;-70
2023/06/23 08:38:46;;;;;;;7.25;2.92;;;;;;;20.57;66.87;102221.75;7387380;19;20003;-70
2023/06/23 08:41:15;;;;;;;5.03;2.85;;;;;;;20.63;65.82;102214.59;7387596;19;20360;-71
2023/06/23 08:43:50;;;;;;;5.40;2.85;;;;;;;20.66;65.14;102225.97;7388037;19;20001;-70
2023/06/23 08:46:19;;;;;;;4.90;2.80;;;;;;;20.73;65.36;102225.97;7386311;19;20241;-70
2023/06/23 08:48:49;;;;;;;5.10;2.95;;;;;;;20.80;63.97;102243.22;7389432;19;20022;-71
2023/06/23 08:51:18;;;;;;;5.25;3.15;;;;;;;20.86;63.60;102242.41;7389582;19;19919;-69
2023/06/23 08:53:50;;;;;;;5.53;3.22;;;;;;;20.96;63.39;102245.56;7389455;19;19962;-70
2023/06/23 08:56:19;;;;;;;5.82;3.35;;;;;;;21.04;63.35;102245.34;7385140;19;19927;-71
2023/06/23 08:58:51;;;;;;;4.80;3.22;;;;;;;21.10;61.97;102244.47;7388362;19;19930;-69
2023/06/23 09:01:20;;;;;;;9.13;3.97;;;;;;;21.18;62.01;102248.94;7386374;19;19919;-70
2023/06/23 09:03:48;;;;;;;5.43;3.10;;;;;;;21.29;61.56;102248.28;7382918;19;19932;-71
2023/06/23 09:06:17;;;;;;;7.20;3.30;;;;;;;21.35;59.63;102261.13;7385907;19;19914;-71
2023/06/23 09:08:46;;;;;;;8.23;3.90;;;;;;;21.41;59.83;102253.94;7386484;19;19930;-69
2023/06/23 09:11:15;;;;;;;7.85;3.97;;;;;;;21.51;60.99;102260.66;7383901;19;19919;-71
2023/06/23 09:13:47;;;;;;;5.30;3.00;;;;;;;21.59;60.22;102262.31;7386934;19;19925;-71
2023/06/23 09:16:18;;;;;;;;;;;;;;;21.51;57.83;102262.56;7387873;19;20259;-71
2023/06/23 09:18:49;;;;;;;5.70;2.80;;;;;;;21.66;60.04;102268.63;7383839;19;19974;-69
2023/06/23 09:21:19;;;;;;;4.90;3.13;;;;;;;21.77;60.02;102264.38;7385058;19;20228;-70
2023/06/23 09:24:03;;;;;;;4.13;2.95;;;;;;;21.84;56.39;102271.50;7386249;19;20271;-69
2023/06/23 09:26:32;;;;;;;5.88;3.28;;;;;;;21.97;58.39;102271.47;7386033;19;19924;-70
2023/06/23 09:29:17;;;;;;;6.75;3.13;;;;;;;22.00;56.29;102268.31;7384770;19;20305;-70
2023/06/23 09:31:50;;;;;;;4.38;2.75;;;;;;;22.08;56.31;102272.72;7383692;19;19926;-69
2023/06/23 09:34:26;;;;;;;4.72;2.90;;;;;;;22.08;57.79;102284.53;7384706;19;20352;-69
2023/06/23 09:36:57;;;;;;;5.53;3.13;;;;;;;22.16;57.26;102280.69;7386720;19;20469;-69
2023/06/23 09:39:26;;;;;;;3.60;2.25;;;;;;;22.26;57.83;102281.06;7383069;19;19926;-69
2023/06/23 09:41:58;;;;;;;16.67;6.43;;;;;;;22.35;55.64;102285.22;7385703;19;20012;-69
2023/06/23 09:44:38;;;;;;;6.57;3.47;;;;;;;22.38;52.17;102271.06;7384403;19;19942;-70
2023/06/23 09:47:10;;;;;;;5.90;3.58;;;;;;;22.46;52.71;102278.19;7386800;19;19967;-70
2023/06/23 09:49:43;;;;;;;7.05;2.72;;;;;;;22.50;51.82;102287.66;7381895;19;19965;-70
2023/06/23 09:52:16;;;;;;;2.78;2.45;;;;;;;22.53;52.67;102289.94;7386180;19;19954;-70
2023/06/23 09:54:44;;;;;;;5.68;2.90;;;;;;;22.54;52.62;102292.50;7383292;19;19922;-69
2023/06/23 09:57:16;;;;;;;4.10;2.25;;;;;;;22.59;51.80;102292.69;7384543;19;19926;-69
2023/06/23 09:59:46;;;;;;;6.65;3.22;;;;;;;22.72;52.04;102296.41;7385303;19;19989;-69
2023/06/23 10:02:25;;;;;;;7.95;3.53;;;;;;;22.72;51.73;102280.78;7384699;19;19922;-69
2023/06/23 10:05:01;;;;;;;7.22;3.45;;;;;;;22.83;49.41;102291.03;7383749;19;19922;-69
2023/06/23 10:07:30;;;;;;;4.90;3.28;;;;;;;22.91;50.97;102293.50;7384398;19;19939;-69
2023/06/23 10:10:04;;;;;;;4.78;2.55;;;;;;;23.02;50.19;102303.78;7383779;19;20324;-71
2023/06/23 10:12:34;;;;;;;10.82;4.07;;;;;;;23.09;51.70;102298.22;7383391;19;20010;-69
2023/06/23 10:15:03;;;;;;;6.60;3.47;;;;;;;23.11;51.47;102287.84;7383689;19;22297;-70
2023/06/23 10:17:34;;;;;;;8.05;3.30;;;;;;;23.20;49.73;102299.41;7386210;19;19939;-71
2023/06/23 10:20:05;;;;;;;4.38;2.70;;;;;;;23.29;50.24;102301.63;7384603;19;19926;-73
2023/06/23 10:22:34;;;;;;;3.85;3.03;;;;;;;23.27;50.42;102305.66;7386813;19;19935;-69
2023/06/23 10:25:03;;;;;;;5.82;3.30;;;;;;;23.30;50.48;102314.28;7389157;19;20577;-69
2023/06/23 10:27:34;;;;;;;9.43;3.90;;;;;;;23.41;51.37;102294.31;7384088;19;20571;-71
2023/06/23 10:30:06;;;;;;;5.18;2.90;;;;;;;23.54;50.48;102307.13;7383482;19;19927;-77
2023/06/23 10:32:40;;;;;;;3.50;2.47;;;;;;;23.62;50.29;102295.81;7383052;19;19949;-76
2023/06/23 10:35:13;;;;;;;4.47;2.92;;;;;;;23.70;49.65;102298.25;7382094;19;20344;-76
2023/06/23 10:37:45;;;;;;;6.35;3.22;;;;;;;23.76;49.73;102299.25;7385115;19;19960;-77
2023/06/23 10:40:18;;;;;;;3.92;2.72;;;;;;;23.79;50.33;102296.03;7380634;19;19922;-74
2023/06/23 10:42:50;;;;;;;5.68;3.03;;;;;;;23.87;49.41;102309.47;7385330;19;19941;-72
2023/06/23 10:45:19;;;;;;;3.88;2.60;;;;;;;23.97;49.72;102304.28;7378450;19;19974;-73
2023/06/23 10:47:51;;;;;;;3.58;2.58;;;;;;;23.99;47.12;102315.88;7382216;19;20923;-74
2023/06/23 10:50:21;;;;;;;4.60;2.83;;;;;;;23.95;48.20;102309.16;7387050;19;19978;-73
2023/06/23 10:52:50;;;;;;;3.95;2.47;;;;;;;23.88;47.41;102311.16;7384635;19;19922;-74
2023/06/23 10:55:38;;;;;;;5.85;2.60;;;;;;;23.88;46.38;102316.69;7381341;19;19921;-73
2023/06/23 10:58:11;;;;;;;4.50;3.00;;;;;;;23.92;47.17;102321.50;7385145;19;19930;-72
2023/06/23 11:00:40;;;;;;;6.68;3.20;;;;;;;24.05;48.42;102317.72;7381409;19;19918;-76
2023/06/23 11:03:27;;;;;;;4.50;2.75;;;;;;;24.24;49.17;102313.94;7387458;19;19930;-78
2023/06/23 11:05:57;;;;;;;4.07;2.80;;;;;;;24.25;48.58;102310.06;7381314;19;19919;-73
2023/06/23 11:08:34;;;;;;;5.15;3.50;;;;;;;24.07;47.70;102307.34;7380787;19;19929;-71
2023/06/23 11:11:07;;;;;;;4.85;3.10;;;;;;;24.09;48.68;102305.19;7377409;19;19930;-72
2023/06/23 11:13:48;;;;;;;5.20;3.15;;;;;;;23.93;49.46;102311.31;7377565;19;19925;-72
2023/06/23 11:16:18;;;;;;;6.03;2.80;;;;;;;23.82;49.58;102315.69;7381365;19;19926;-72
2023/06/23 11:18:57;;;;;;;9.85;3.75;;;;;;;24.09;48.83;102321.69;7380522;19;19935;-72
2023/06/23 11:21:37;;;;;;;18.80;5.60;;;;;;;24.38;47.98;102326.41;7379277;19;19992;-74
2023/06/23 11:24:13;;;;;;;17.85;5.53;;;;;;;24.67;48.28;102334.94;7381443;19;19927;-72
2023/06/23 11:26:47;;;;;;;4.47;3.28;;;;;;;24.73;46.92;102325.69;7379566;19;19929;-75
2023/06/23 11:29:18;;;;;;;4.38;2.75;;;;;;;24.77;47.36;102324.16;7379566;19;19953;-74
2023/06/23 11:32:06;;;;;;;4.80;3.17;;;;;;;24.78;48.36;102329.44;7383195;19;19947;-73
2023/06/23 11:34:57;;;;;;;4.45;2.67;;;;;;;24.90;48.12;102329.47;7382682;19;20333;-77
2023/06/23 11:37:30;;;;;;;4.47;3.15;;;;;;;24.98;47.46;102323.63;7382783;19;19922;-76
2023/06/23 11:40:00;;;;;;;5.53;2.85;;;;;;;25.18;48.57;102326.91;7379575;19;20509;-72
2023/06/23 11:42:29;;;;;;;4.72;2.50;;;;;;;25.45;48.16;102331.94;7382912;19;20670;-74
2023/06/23 11:45:00;;;;;;;6.13;2.95;;;;;;;25.16;48.86;102329.03;7382046;19;20396;-76